| Date | Time | Temp. (oF) | Dew Point (oF) | Rel. Hum. (%) | Press. (in.) | Wind Dir. | Wind Speed (mph) | Hourly Rainfall (in.) |
|
|---|---|---|---|---|---|---|---|---|---|
| 1 | 06/02 | 00:00 | 51 | 48 | 90 | 29.88 | WNW | 1 | 0.00 |
| 2 | 06/01 | 23:00 | 53 | 49 | 87 | 29.88 | W | 0 | 0.00 |
| 3 | 06/01 | 22:00 | 55 | 48 | 80 | 29.86 | NW | 2 | 0.00 |
| 4 | 06/01 | 21:00 | 56 | 48 | 77 | 29.84 | NNW | 3 | 0.00 |
| 5 | 06/01 | 20:00 | 59 | 49 | 72 | 29.81 | N | 8 | 0.00 |
| 6 | 06/01 | 19:00 | 61 | 51 | 72 | 29.78 | NW | 8 | 0.00 |
| 7 | 06/01 | 18:00 | 61 | 52 | 73 | 29.76 | NNW | 5 | 0.00 |
| 8 | 06/01 | 17:00 | 62 | 53 | 74 | 29.72 | WNW | 8 | 0.00 |
| 9 | 06/01 | 16:00 | 59 | 55 | 88 | 29.71 | NNW | 8 | 0.01 |
| 10 | 06/01 | 15:00 | 55 | 53 | 93 | 29.69 | NNW | 6 | 0.01 |
| 11 | 06/01 | 14:00 | 54 | 51 | 92 | 29.66 | NW | 12 | 0.01 |
| 12 | 06/01 | 13:00 | 54 | 51 | 91 | 29.63 | NW | 11 | 0.00 |
| 13 | 06/01 | 12:00 | 54 | 49 | 85 | 29.60 | WNW | 7 | 0.00 |
| 14 | 06/01 | 11:00 | 54 | 50 | 89 | 29.57 | NNW | 11 | 0.00 |
| 15 | 06/01 | 10:00 | 53 | 52 | 98 | 29.53 | W | 7 | 0.01 |
| 16 | 06/01 | 09:00 | 52 | 51 | 98 | 29.50 | NNW | 6 | 0.03 |
| 17 | 06/01 | 08:00 | 52 | 51 | 99 | 29.47 | NW | 10 | 0.03 |
| 18 | 06/01 | 07:00 | 52 | 51 | 99 | 29.44 | WNW | 21 | 0.04 |
| 19 | 06/01 | 06:00 | 54 | 53 | 99 | 29.40 | WNW | 9 | 0.03 |
| 20 | 06/01 | 05:00 | 55 | 54 | 98 | 29.36 | NNW | 10 | 0.01 |
| 21 | 06/01 | 04:00 | 57 | 56 | 97 | 29.35 | WNW | 11 | 0.01 |
| 22 | 06/01 | 03:00 | 59 | 58 | 97 | 29.34 | WNW | 10 | 0.00 |
| 23 | 06/01 | 02:00 | 60 | 59 | 100 | 29.34 | NNW | 3 | 0.00 |
| 24 | 06/01 | 01:00 | 60 | 59 | 100 | 29.34 | WNW | 3 | 0.00 |